Time;durP1;ratioP1;P1;durP2;ratioP2;P2;SDS_P1;SDS_P2;PMS_P1;PMS_P2;Temp;Humidity;BMP_temperature;BMP_pressure;BME280_temperature;BME280_humidity;BME280_pressure;Samples;Min_cycle;Max_cycle;Signal;HPM_P1;HPM_P2
2024/01/18 00:00:53;;;;;;;;;35.75;32.00;;;;;-144.62;100.00;60556.56;5029986;28;47336;-75
2024/01/18 00:03:19;;;;;;;;;36.75;30.75;;;;;-144.62;100.00;60556.56;5037387;28;50934;-75
2024/01/18 00:05:44;;;;;;;;;41.00;30.75;;;;;-144.62;100.00;60556.56;5031737;28;45420;-75
2024/01/18 00:08:09;;;;;;;;;33.50;29.50;;;;;-144.62;100.00;60556.56;5038825;28;45734;-75
2024/01/18 00:10:34;;;;;;;;;38.25;32.75;;;;;-144.62;100.00;60556.56;5035642;27;51002;-76
2024/01/18 00:13:00;;;;;;;;;35.25;27.75;;;;;-144.62;100.00;60556.56;5038238;28;45323;-75
2024/01/18 00:15:25;;;;;;;;;31.75;29.75;;;;;-144.62;100.00;60556.56;5036902;28;45368;-74
2024/01/18 00:17:51;;;;;;;;;31.25;24.75;;;;;-144.62;100.00;60556.56;5039629;28;45298;-74
2024/01/18 00:20:16;;;;;;;;;22.50;20.25;;;;;-144.62;100.00;60556.56;5037445;27;46854;-74
2024/01/18 00:22:42;;;;;;;;;28.00;23.50;;;;;-144.62;100.00;60556.56;5039821;28;45414;-74
2024/01/18 00:25:08;;;;;;;;;38.50;28.25;;;;;-144.62;100.00;60556.56;5026816;28;45410;-74
2024/01/18 00:27:33;;;;;;;;;31.00;26.50;;;;;-144.62;100.00;60556.56;5040234;28;45583;-74
2024/01/18 00:29:58;;;;;;;;;32.50;31.25;;;;;-144.62;100.00;60556.56;5028370;28;45417;-74
2024/01/18 00:32:24;;;;;;;;;28.25;25.50;;;;;-144.62;100.00;60556.56;5038868;28;45210;-75
2024/01/18 00:34:49;;;;;;;;;42.00;31.50;;;;;-144.62;100.00;60556.56;5033010;28;45387;-75
2024/01/18 00:37:15;;;;;;;;;33.50;18.50;;;;;-144.62;100.00;60556.56;5037805;28;45332;-75
2024/01/18 00:39:41;;;;;;;;;26.25;25.25;;;;;-144.62;100.00;60556.56;5026135;28;45385;-75
2024/01/18 00:42:07;;;;;;;;;28.75;20.00;;;;;-144.62;100.00;60556.56;5036996;28;45411;-75
2024/01/18 00:44:32;;;;;;;;;29.67;22.67;;;;;-144.62;100.00;60556.56;5033268;28;45320;-75
2024/01/18 00:46:58;;;;;;;;;26.25;24.25;;;;;-144.62;100.00;60556.56;5033069;28;45234;-75
2024/01/18 00:49:23;;;;;;;;;26.25;23.50;;;;;-144.62;100.00;60556.56;5031891;28;45670;-75
2024/01/18 00:51:48;;;;;;;;;33.75;24.50;;;;;-144.62;100.00;60556.56;5033211;28;45383;-75
2024/01/18 00:54:14;;;;;;;;;34.25;28.00;;;;;-144.62;100.00;60556.56;5037060;27;51022;-75
2024/01/18 00:56:39;;;;;;;;;32.25;30.00;;;;;-144.62;100.00;60556.56;5033551;27;45462;-74
2024/01/18 00:59:04;;;;;;;;;24.50;22.00;;;;;-144.62;100.00;60556.56;5047153;28;46987;-74
2024/01/18 01:01:30;;;;;;;;;28.50;23.25;;;;;-144.62;100.00;60556.56;5034087;27;45445;-74
2024/01/18 01:03:55;;;;;;;;;24.75;17.75;;;;;-144.62;100.00;60556.56;5038665;28;45411;-74
2024/01/18 01:06:21;;;;;;;;;27.25;25.00;;;;;-144.62;100.00;60556.56;5038208;28;45546;-75
2024/01/18 01:08:46;;;;;;;;;33.00;28.50;;;;;-144.62;100.00;60556.56;5034981;28;46259;-75
2024/01/18 01:11:12;;;;;;;;;25.25;18.50;;;;;-144.62;100.00;60556.56;5043674;28;45321;-75
2024/01/18 01:13:38;;;;;;;;;36.50;27.50;;;;;-144.62;100.00;60556.56;5043641;28;45436;-76
2024/01/18 01:16:03;;;;;;;;;30.50;25.25;;;;;-144.62;100.00;60556.56;5040620;28;45297;-75
2024/01/18 01:18:29;;;;;;;;;31.00;27.00;;;;;-144.62;100.00;60556.56;5037685;28;46762;-75
2024/01/18 01:20:54;;;;;;;;;26.00;23.50;;;;;-144.62;100.00;60556.56;5031089;28;45252;-75
2024/01/18 01:23:19;;;;;;;;;28.25;25.75;;;;;-144.62;100.00;60556.56;5039593;27;51052;-75
2024/01/18 01:25:45;;;;;;;;;26.25;19.25;;;;;-144.62;100.00;60556.56;5031339;28;45537;-75
2024/01/18 01:28:10;;;;;;;;;24.25;17.50;;;;;-144.62;100.00;60556.56;5037672;28;48184;-75
2024/01/18 01:30:35;;;;;;;;;36.50;25.50;;;;;-144.62;100.00;60556.56;5033287;28;45258;-75
2024/01/18 01:33:01;;;;;;;;;30.50;24.25;;;;;-144.62;100.00;60556.56;5040713;28;45388;-74
2024/01/18 01:35:26;;;;;;;;;20.50;17.00;;;;;-144.62;100.00;60556.56;5039142;28;45474;-74
2024/01/18 01:37:51;;;;;;;;;26.50;22.75;;;;;-144.62;100.00;60556.56;5040888;27;52874;-74
2024/01/18 01:40:18;;;;;;;;;31.50;25.25;;;;;-144.62;100.00;60556.56;5028847;28;45241;-74
2024/01/18 01:42:43;;;;;;;;;29.75;24.25;;;;;-144.62;100.00;60556.56;5037180;28;45350;-74
2024/01/18 01:45:10;;;;;;;;;35.25;30.50;;;;;-144.62;100.00;60556.56;5030662;28;45673;-74
2024/01/18 01:47:35;;;;;;;;;38.50;26.50;;;;;-144.62;100.00;60556.56;5038997;27;45729;-74
2024/01/18 01:50:00;;;;;;;;;28.00;20.00;;;;;-144.62;100.00;60556.56;5032272;28;45406;-74
2024/01/18 01:52:29;;;;;;;;;31.25;30.00;;;;;-144.62;100.00;60556.56;5039992;27;45463;-73
2024/01/18 01:54:56;;;;;;;;;43.25;33.25;;;;;-144.62;100.00;60556.56;5034640;28;45280;-74
2024/01/18 01:57:21;;;;;;;;;29.25;27.00;;;;;-144.62;100.00;60556.56;5037866;27;45438;-74
2024/01/18 01:59:47;;;;;;;;;39.00;36.00;;;;;-144.62;100.00;60556.56;5038398;28;45317;-74
2024/01/18 02:02:13;;;;;;;;;32.00;30.00;;;;;-144.62;100.00;60556.56;5040543;28;46344;-74
2024/01/18 02:04:39;;;;;;;;;41.50;35.25;;;;;-144.62;100.00;60556.56;5034027;28;45789;-74
2024/01/18 02:07:05;;;;;;;;;29.25;22.25;;;;;-144.62;100.00;60556.56;5037784;28;46608;-74
2024/01/18 02:09:31;;;;;;;;;39.75;27.00;;;;;-144.62;100.00;60556.56;5035433;27;45322;-74
2024/01/18 02:11:57;;;;;;;;;38.75;32.75;;;;;-144.62;100.00;60556.56;5038026;27;45432;-74
2024/01/18 02:14:23;;;;;;;;;34.25;26.00;;;;;-144.62;100.00;60556.56;5038164;28;45321;-73
2024/01/18 02:16:49;;;;;;;;;33.00;28.75;;;;;-144.62;100.00;60556.56;5040057;28;45336;-75
2024/01/18 02:19:14;;;;;;;;;24.25;20.25;;;;;-144.62;100.00;60556.56;5039589;28;45240;-74
2024/01/18 02:21:39;;;;;;;;;43.00;31.00;;;;;-144.62;100.00;60556.56;5036481;27;46396;-74
2024/01/18 02:24:33;;;;;;;;;33.50;29.25;;;;;-144.62;100.00;60556.56;5049407;28;45445;-74
2024/01/18 02:26:59;;;;;;;;;30.25;20.75;;;;;-144.62;100.00;60556.56;5036530;28;45757;-74
2024/01/18 02:29:24;;;;;;;;;35.00;27.00;;;;;-144.62;100.00;60556.56;5033203;28;45205;-74
2024/01/18 02:31:49;;;;;;;;;29.25;27.25;;;;;-144.62;100.00;60556.56;5038785;27;45502;-74
2024/01/18 02:34:17;;;;;;;;;30.25;26.00;;;;;-144.62;100.00;60556.56;5035373;28;45528;-74
2024/01/18 02:36:43;;;;;;;;;29.75;29.00;;;;;-144.62;100.00;60556.56;5038485;27;45461;-74
2024/01/18 02:39:09;;;;;;;;;40.75;30.00;;;;;-144.62;100.00;60556.56;5035966;28;45388;-74
2024/01/18 02:41:35;;;;;;;;;29.25;25.00;;;;;-144.62;100.00;60556.56;5039263;27;45422;-74
2024/01/18 02:44:00;;;;;;;;;36.75;28.25;;;;;-144.62;100.00;60556.56;5037832;28;45376;-74
2024/01/18 02:46:29;;;;;;;;;33.75;25.75;;;;;-144.62;100.00;60556.56;5035897;28;46976;-73
2024/01/18 02:48:55;;;;;;;;;38.00;25.50;;;;;-144.62;100.00;60556.56;5026893;28;45382;-73
2024/01/18 02:51:20;;;;;;;;;32.50;25.75;;;;;-144.62;100.00;60556.56;5034608;28;45336;-73
2024/01/18 02:53:45;;;;;;;;;31.50;24.50;;;;;-144.62;100.00;60556.56;5048888;28;45607;-73
2024/01/18 02:56:11;;;;;;;;;33.50;29.25;;;;;-144.62;100.00;60556.56;5029319;27;49199;-73
2024/01/18 02:58:36;;;;;;;;;27.50;26.50;;;;;-144.62;100.00;60556.56;5036802;28;45331;-73
2024/01/18 03:01:02;;;;;;;;;32.00;23.00;;;;;-144.62;100.00;60556.56;5044934;28;52526;-73
2024/01/18 03:03:27;;;;;;;;;26.50;15.25;;;;;-144.62;100.00;60556.56;5047198;27;46307;-73
2024/01/18 03:05:52;;;;;;;;;28.25;23.00;;;;;-144.62;100.00;60556.56;5035361;28;45474;-74
2024/01/18 03:08:18;;;;;;;;;25.25;21.75;;;;;-144.62;100.00;60556.56;5038720;28;45439;-73
2024/01/18 03:10:43;;;;;;;;;27.00;22.00;;;;;-144.62;100.00;60556.56;5123462;27;45430;-73
2024/01/18 03:13:08;;;;;;;;;33.00;26.00;;;;;-144.62;100.00;60556.56;5038556;28;45520;-74
2024/01/18 03:15:34;;;;;;;;;21.50;17.25;;;;;-144.62;100.00;60556.56;5039087;27;45392;-73
2024/01/18 03:17:59;;;;;;;;;20.75;18.00;;;;;-144.62;100.00;60556.56;5037723;28;45400;-74
2024/01/18 03:20:24;;;;;;;;;24.75;20.25;;;;;-144.62;100.00;60556.56;5040514;28;49256;-73
2024/01/18 03:22:50;;;;;;;;;25.00;16.50;;;;;-144.62;100.00;60556.56;5040305;28;45532;-73
2024/01/18 03:25:15;;;;;;;;;23.75;22.00;;;;;-144.62;100.00;60556.56;5085580;27;48002;-73
2024/01/18 03:27:40;;;;;;;;;25.50;21.50;;;;;-144.62;100.00;60556.56;5040834;28;45460;-73
2024/01/18 03:30:09;;;;;;;;;21.00;16.25;;;;;-144.62;100.00;60556.56;5029428;28;45713;-73
2024/01/18 03:32:34;;;;;;;;;23.75;21.25;;;;;-144.62;100.00;60556.56;5032859;28;45441;-72
2024/01/18 03:35:00;;;;;;;;;17.50;16.25;;;;;-144.62;100.00;60556.56;5032411;28;45988;-73
2024/01/18 03:37:26;;;;;;;;;22.75;15.00;;;;;-144.62;100.00;60556.56;5040590;28;45283;-73
2024/01/18 03:39:51;;;;;;;;;25.75;21.25;;;;;-144.62;100.00;60556.56;5035299;28;45377;-72
2024/01/18 03:42:16;;;;;;;;;21.00;18.75;;;;;-144.62;100.00;60556.56;5041454;27;45585;-72
2024/01/18 03:44:42;;;;;;;;;20.75;16.75;;;;;-144.62;100.00;60556.56;5030915;27;52640;-72
2024/01/18 03:47:07;;;;;;;;;24.75;17.00;;;;;-144.62;100.00;60556.56;5028363;28;45541;-72
2024/01/18 03:49:32;;;;;;;;;27.25;20.25;;;;;-144.62;100.00;60556.56;5045473;27;45364;-72
2024/01/18 03:51:58;;;;;;;;;19.50;17.75;;;;;-144.62;100.00;60556.56;5033650;28;45627;-73
2024/01/18 03:54:23;;;;;;;;;26.75;18.00;;;;;-144.62;100.00;60556.56;5035519;28;45591;-72
2024/01/18 03:56:48;;;;;;;;;14.75;14.25;;;;;-144.62;100.00;60556.56;5038842;27;45210;-72
2024/01/18 03:59:14;;;;;;;;;13.00;13.00;;;;;-144.62;100.00;60556.56;5031340;28;45806;-72
2024/01/18 04:01:40;;;;;;;;;17.50;14.75;;;;;-144.62;100.00;60556.56;5035988;28;45327;-73
2024/01/18 04:04:05;;;;;;;;;12.75;12.25;;;;;-144.62;100.00;60556.56;5034830;28;46098;-73
2024/01/18 04:06:31;;;;;;;;;21.75;18.00;;;;;-144.62;100.00;60556.56;5034646;28;45562;-70
2024/01/18 04:08:56;;;;;;;;;13.00;13.00;;;;;-144.62;100.00;60556.56;5032546;28;45323;-73
2024/01/18 04:11:21;;;;;;;;;14.50;14.00;;;;;-144.62;100.00;60556.56;5037839;28;45438;-71
2024/01/18 04:13:47;;;;;;;;;16.25;14.25;;;;;-144.62;100.00;60556.56;5037858;27;45624;-70
2024/01/18 04:16:13;;;;;;;;;9.33;9.33;;;;;-144.62;100.00;60556.56;5038837;28;45390;-71
2024/01/18 04:18:38;;;;;;;;;15.50;15.50;;;;;-144.62;100.00;60556.56;5035485;28;45311;-71
2024/01/18 04:21:04;;;;;;;;;15.25;14.25;;;;;-144.62;100.00;60556.56;5025915;28;46812;-71
2024/01/18 04:23:29;;;;;;;;;23.50;20.00;;;;;-144.62;100.00;60556.56;5035277;28;47846;-72
2024/01/18 04:25:55;;;;;;;;;16.50;12.75;;;;;-144.62;100.00;60556.56;5037775;28;45370;-71
2024/01/18 04:28:21;;;;;;;;;14.50;14.50;;;;;-144.62;100.00;60556.56;5035338;28;45358;-71
2024/01/18 04:30:47;;;;;;;;;22.50;22.50;;;;;-144.62;100.00;60556.56;5033000;28;45449;-72
2024/01/18 04:33:13;;;;;;;;;18.00;11.50;;;;;-144.62;100.00;60556.56;5038344;28;45699;-71
2024/01/18 04:35:39;;;;;;;;;23.75;19.25;;;;;-144.62;100.00;60556.56;5039142;28;45430;-72
2024/01/18 04:38:06;;;;;;;;;23.25;21.50;;;;;-144.62;100.00;60556.56;5046116;28;45498;-72
2024/01/18 04:40:31;;;;;;;;;26.00;21.25;;;;;-144.62;100.00;60556.56;5028985;28;45336;-71
2024/01/18 04:42:56;;;;;;;;;29.25;24.50;;;;;-144.62;100.00;60556.56;5034570;28;57956;-71
2024/01/18 04:45:22;;;;;;;;;18.00;16.75;;;;;-144.62;100.00;60556.56;5028372;27;45416;-71
2024/01/18 04:47:47;;;;;;;;;19.75;17.25;;;;;-144.62;100.00;60556.56;5036616;27;45303;-73
2024/01/18 04:50:12;;;;;;;;;16.50;14.50;;;;;-144.62;100.00;60556.56;5037295;27;45550;-73
2024/01/18 04:52:38;;;;;;;;;27.75;15.25;;;;;-144.62;100.00;60556.56;5039527;27;45400;-73
2024/01/18 04:55:08;;;;;;;;;22.00;15.50;;;;;-144.62;100.00;60556.56;5034269;28;45351;-74
2024/01/18 04:57:37;;;;;;;;;25.00;22.25;;;;;-144.62;100.00;60556.56;5036739;27;45401;-74
2024/01/18 05:00:09;;;;;;;;;26.75;22.50;;;;;-144.62;100.00;60556.56;5033022;28;45516;-72
2024/01/18 05:02:35;;;;;;;;;30.50;22.25;;;;;-144.62;100.00;60556.56;5039011;28;46271;-74
2024/01/18 05:05:00;;;;;;;;;34.50;30.50;;;;;-144.62;100.00;60556.56;5028514;28;45639;-74
2024/01/18 05:07:27;;;;;;;;;32.25;27.25;;;;;-144.62;100.00;60556.56;5034215;28;45369;-73
2024/01/18 05:09:52;;;;;;;;;31.00;27.75;;;;;-144.62;100.00;60556.56;5034438;28;45434;-73
2024/01/18 05:12:17;;;;;;;;;41.50;33.75;;;;;-144.62;100.00;60556.56;5034004;28;48124;-73
2024/01/18 05:14:43;;;;;;;;;36.75;32.25;;;;;-144.62;100.00;60556.56;5033890;27;45688;-73
2024/01/18 05:17:11;;;;;;;;;38.75;34.75;;;;;-144.62;100.00;60556.56;5037644;28;45948;-73
2024/01/18 05:19:37;;;;;;;;;40.25;33.75;;;;;-144.62;100.00;60556.56;5037530;28;45546;-73
2024/01/18 05:22:03;;;;;;;;;43.50;34.25;;;;;-144.62;100.00;60556.56;5029082;27;47779;-74
2024/01/18 05:24:30;;;;;;;;;39.00;36.00;;;;;-144.62;100.00;60556.56;5028471;27;45284;-73
2024/01/18 05:26:55;;;;;;;;;44.25;35.75;;;;;-144.62;100.00;60556.56;5035367;27;45379;-73
2024/01/18 05:29:20;;;;;;;;;50.50;41.75;;;;;-144.62;100.00;60556.56;5037209;28;45677;-74
2024/01/18 05:31:46;;;;;;;;;43.75;38.25;;;;;-144.62;100.00;60556.56;5035389;28;45418;-74
2024/01/18 05:34:12;;;;;;;;;53.75;44.75;;;;;-144.62;100.00;60556.56;5047646;28;45330;-74
2024/01/18 05:36:38;;;;;;;;;50.50;38.00;;;;;-144.62;100.00;60556.56;5035713;28;45308;-73
2024/01/18 05:39:03;;;;;;;;;56.25;41.75;;;;;-144.62;100.00;60556.56;5031315;27;45610;-74
2024/01/18 05:41:28;;;;;;;;;60.75;43.75;;;;;-144.62;100.00;60556.56;5040712;28;46782;-73
2024/01/18 05:43:54;;;;;;;;;56.25;46.00;;;;;-144.62;100.00;60556.56;5030960;28;56548;-73
2024/01/18 05:46:19;;;;;;;;;45.25;38.00;;;;;-144.62;100.00;60556.56;5029771;28;45218;-73
2024/01/18 05:48:44;;;;;;;;;48.75;41.50;;;;;-144.62;100.00;60556.56;5033380;28;45377;-74
2024/01/18 05:51:10;;;;;;;;;62.25;45.50;;;;;-144.62;100.00;60556.56;5046035;28;45230;-74
2024/01/18 05:53:35;;;;;;;;;61.50;48.25;;;;;-144.62;100.00;60556.56;5035123;27;45418;-74
2024/01/18 05:56:01;;;;;;;;;60.50;45.75;;;;;-144.62;100.00;60556.56;5041388;28;45498;-74
2024/01/18 05:58:31;;;;;;;;;63.75;50.25;;;;;-144.62;100.00;60556.56;5036874;27;45484;-73
2024/01/18 06:00:56;;;;;;;;;48.25;39.00;;;;;-144.62;100.00;60556.56;5038395;28;47641;-74
2024/01/18 06:03:22;;;;;;;;;56.25;45.00;;;;;-144.62;100.00;60556.56;5039044;28;45285;-74
2024/01/18 06:05:47;;;;;;;;;55.75;45.50;;;;;-144.62;100.00;60556.56;5034392;28;45403;-74
2024/01/18 06:08:12;;;;;;;;;48.25;42.75;;;;;-144.62;100.00;60556.56;5038222;28;45428;-74
2024/01/18 06:10:37;;;;;;;;;53.25;42.00;;;;;-144.62;100.00;60556.56;5036205;28;45460;-74
2024/01/18 06:13:03;;;;;;;;;42.25;34.50;;;;;-144.62;100.00;60556.56;5039900;28;47324;-74
2024/01/18 06:15:28;;;;;;;;;60.75;41.75;;;;;-144.62;100.00;60556.56;5037414;28;45379;-75
2024/01/18 06:17:54;;;;;;;;;47.75;43.00;;;;;-144.62;100.00;60556.56;5040798;28;45613;-75
2024/01/18 06:20:19;;;;;;;;;47.25;40.50;;;;;-144.62;100.00;60556.56;5021649;28;57200;-76
2024/01/18 06:22:45;;;;;;;;;49.50;39.75;;;;;-144.62;100.00;60556.56;5038951;28;45331;-75
2024/01/18 06:25:10;;;;;;;;;43.50;35.50;;;;;-144.62;100.00;60556.56;5027516;28;49389;-75
2024/01/18 06:27:35;;;;;;;;;69.25;47.00;;;;;-144.62;100.00;60556.56;5034785;28;45516;-75
2024/01/18 06:30:01;;;;;;;;;48.75;40.50;;;;;-144.62;100.00;60556.56;5028399;27;45411;-75
2024/01/18 06:32:26;;;;;;;;;50.00;41.25;;;;;-144.62;100.00;60556.56;5039023;28;45340;-75
2024/01/18 06:34:51;;;;;;;;;68.00;52.75;;;;;-144.62;100.00;60556.56;5033070;28;45403;-76
2024/01/18 06:37:17;;;;;;;;;52.50;43.25;;;;;-144.62;100.00;60556.56;5039015;28;45640;-76
2024/01/18 06:39:42;;;;;;;;;59.00;48.50;;;;;-144.62;100.00;60556.56;5030071;28;45468;-75
2024/01/18 06:42:08;;;;;;;;;38.50;31.75;;;;;-144.62;100.00;60556.56;5031820;28;45204;-75
2024/01/18 06:44:34;;;;;;;;;51.75;44.75;;;;;-144.62;100.00;60556.56;5031599;28;45462;-75
2024/01/18 06:47:00;;;;;;;;;57.25;45.25;;;;;-144.62;100.00;60556.56;5049216;28;45310;-75
2024/01/18 06:49:26;;;;;;;;;49.50;40.25;;;;;-144.62;100.00;60556.56;5034912;28;45448;-75
2024/01/18 06:51:52;;;;;;;;;55.00;47.50;;;;;-144.62;100.00;60556.56;5034298;28;45325;-74
2024/01/18 06:54:21;;;;;;;;;51.75;40.25;;;;;-144.62;100.00;60556.56;5031113;27;45316;-74
2024/01/18 06:56:47;;;;;;;;;63.50;44.75;;;;;-144.62;100.00;60556.56;5035788;27;45583;-74
2024/01/18 06:59:14;;;;;;;;;58.50;46.00;;;;;-144.62;100.00;60556.56;5045358;28;46226;-73
2024/01/18 07:01:39;;;;;;;;;46.50;43.25;;;;;-144.62;100.00;60556.56;5035897;27;45503;-75
2024/01/18 07:04:04;;;;;;;;;50.00;42.50;;;;;-144.62;100.00;60556.56;5034445;28;45529;-76
2024/01/18 07:06:30;;;;;;;;;55.25;44.25;;;;;-144.62;100.00;60556.56;5037073;28;45560;-77
2024/01/18 07:08:55;;;;;;;;;61.50;44.75;;;;;-144.62;100.00;60556.56;5038089;27;46289;-75
2024/01/18 07:11:21;;;;;;;;;62.25;49.50;;;;;-144.62;100.00;60556.56;5033725;28;45389;-75
2024/01/18 07:13:46;;;;;;;;;54.25;46.75;;;;;-144.62;100.00;60556.56;5034592;27;45494;-74
2024/01/18 07:16:12;;;;;;;;;55.50;48.25;;;;;-144.62;100.00;60556.56;5033043;28;45304;-75
2024/01/18 07:18:37;;;;;;;;;65.00;50.25;;;;;-144.62;100.00;60556.56;5031869;28;45392;-74
2024/01/18 07:21:03;;;;;;;;;62.00;48.00;;;;;-144.62;100.00;60556.56;5025406;28;45350;-75
2024/01/18 07:23:28;;;;;;;;;65.50;53.00;;;;;-144.62;100.00;60556.56;5037398;28;45481;-75
2024/01/18 07:25:54;;;;;;;;;67.50;50.00;;;;;-144.62;100.00;60556.56;5031378;28;45445;-76
2024/01/18 07:28:22;;;;;;;;;54.25;45.75;;;;;-144.62;100.00;60556.56;5036140;28;48021;-75
2024/01/18 07:30:47;;;;;;;;;51.50;41.75;;;;;-144.62;100.00;60556.56;5029632;28;45459;-78
2024/01/18 07:33:12;;;;;;;;;61.50;50.00;;;;;-144.62;100.00;60556.56;5038185;27;45341;-73
2024/01/18 07:35:38;;;;;;;;;68.25;54.00;;;;;-144.62;100.00;60556.56;5038759;28;45299;-75
2024/01/18 07:38:04;;;;;;;;;74.25;57.00;;;;;-144.62;100.00;60556.56;5037459;27;51100;-75
2024/01/18 07:40:29;;;;;;;;;63.75;49.50;;;;;-144.62;100.00;60556.56;5032631;27;45431;-75
2024/01/18 07:42:54;;;;;;;;;66.75;52.25;;;;;-144.62;100.00;60556.56;5038369;28;45449;-75
2024/01/18 07:45:20;;;;;;;;;59.50;49.00;;;;;-144.62;100.00;60556.56;5028393;28;45593;-75
2024/01/18 07:47:46;;;;;;;;;75.25;53.25;;;;;-144.62;100.00;60556.56;5035144;28;45833;-76
2024/01/18 07:50:12;;;;;;;;;72.00;53.25;;;;;-144.62;100.00;60556.56;5029429;28;45495;-75
2024/01/18 07:52:38;;;;;;;;;70.00;56.50;;;;;-144.62;100.00;60556.56;5034629;28;45439;-74
2024/01/18 07:55:06;;;;;;;;;68.00;53.25;;;;;-144.62;100.00;60556.56;5030341;28;45513;-74
2024/01/18 07:57:31;;;;;;;;;71.50;55.00;;;;;-144.62;100.00;60556.56;5039445;27;45416;-75
2024/01/18 07:59:57;;;;;;;;;69.50;53.75;;;;;-144.62;100.00;60556.56;5038667;27;45332;-74
2024/01/18 08:02:22;;;;;;;;;58.75;46.25;;;;;-144.62;100.00;60556.56;5039382;28;46030;-74
2024/01/18 08:04:47;;;;;;;;;74.25;57.25;;;;;-144.62;100.00;60556.56;5031748;28;45738;-75
2024/01/18 08:07:12;;;;;;;;;71.75;54.50;;;;;-144.62;100.00;60556.56;5035555;27;45255;-76
2024/01/18 08:09:38;;;;;;;;;72.00;50.00;;;;;-144.62;100.00;60556.56;5034304;28;45370;-74
2024/01/18 08:12:04;;;;;;;;;64.50;52.00;;;;;-144.62;100.00;60556.56;5035719;28;45268;-75
2024/01/18 08:14:30;;;;;;;;;70.00;53.00;;;;;-144.62;100.00;60556.56;5037106;28;45628;-74
2024/01/18 08:16:55;;;;;;;;;69.50;54.25;;;;;-144.62;100.00;60556.56;5038699;28;46470;-76
2024/01/18 08:19:21;;;;;;;;;74.25;60.50;;;;;-144.62;100.00;60556.56;5030951;27;46101;-75
2024/01/18 08:21:46;;;;;;;;;66.00;50.25;;;;;-144.62;100.00;60556.56;5030929;28;45582;-76
2024/01/18 08:24:12;;;;;;;;;68.50;53.75;;;;;-144.62;100.00;60556.56;5033078;28;45295;-73
2024/01/18 08:26:37;;;;;;;;;73.00;56.25;;;;;-144.62;100.00;60556.56;5033825;28;46171;-75
2024/01/18 08:29:03;;;;;;;;;68.00;53.50;;;;;-144.62;100.00;60556.56;5034512;28;45470;-75
2024/01/18 08:31:28;;;;;;;;;67.50;52.75;;;;;-144.62;100.00;60556.56;5037001;27;45400;-74
2024/01/18 08:33:53;;;;;;;;;69.50;54.50;;;;;-144.62;100.00;60556.56;5037786;28;45318;-73
2024/01/18 08:36:19;;;;;;;;;74.00;55.75;;;;;-144.62;100.00;60556.56;5034017;28;49249;-73
2024/01/18 08:38:45;;;;;;;;;62.00;47.50;;;;;-144.62;100.00;60556.56;5035236;28;45256;-76
2024/01/18 08:41:10;;;;;;;;;71.00;53.75;;;;;-144.62;100.00;60556.56;5034330;28;45461;-76
2024/01/18 08:43:36;;;;;;;;;67.25;52.25;;;;;-144.62;100.00;60556.56;5041889;28;45463;-78
2024/01/18 08:46:06;;;;;;;;;76.00;59.25;;;;;-144.62;100.00;60556.56;5047903;28;47353;-74
2024/01/18 08:48:32;;;;;;;;;72.25;53.75;;;;;-144.62;100.00;60556.56;5050759;28;45954;-75
2024/01/18 08:50:57;;;;;;;;;73.75;53.75;;;;;-144.62;100.00;60556.56;5033129;27;45434;-74
2024/01/18 08:53:22;;;;;;;;;67.75;53.25;;;;;-144.62;100.00;60556.56;5052090;28;45360;-74
2024/01/18 08:55:48;;;;;;;;;62.25;50.00;;;;;-144.62;100.00;60556.56;5030981;28;45302;-74
2024/01/18 08:58:13;;;;;;;;;68.00;52.50;;;;;-144.62;100.00;60556.56;5037794;27;45403;-75
2024/01/18 09:00:38;;;;;;;;;81.50;61.50;;;;;-144.62;100.00;60556.56;5029824;27;50293;-77
2024/01/18 09:03:04;;;;;;;;;74.00;54.50;;;;;-144.62;100.00;60556.56;5037937;28;45444;-74
2024/01/18 09:05:30;;;;;;;;;69.25;54.50;;;;;-144.62;100.00;60556.56;5032068;28;46241;-76
2024/01/18 09:07:57;;;;;;;;;56.00;44.00;;;;;-144.62;100.00;60556.56;5038232;27;45266;-75
2024/01/18 09:10:22;;;;;;;;;74.75;60.00;;;;;-144.62;100.00;60556.56;5034442;28;46475;-75
2024/01/18 09:12:48;;;;;;;;;69.50;52.00;;;;;-144.62;100.00;60556.56;5054933;28;45414;-75
2024/01/18 09:15:14;;;;;;;;;70.75;57.50;;;;;-144.62;100.00;60556.56;5032177;28;45651;-75
2024/01/18 09:17:41;;;;;;;;;73.75;60.25;;;;;-144.62;100.00;60556.56;5037425;28;45448;-73
2024/01/18 09:20:09;;;;;;;;;69.75;52.25;;;;;-144.62;100.00;60556.56;5024464;28;45494;-74
2024/01/18 09:22:34;;;;;;;;;82.75;63.00;;;;;-144.62;100.00;60556.56;5034505;28;45335;-74
2024/01/18 09:25:00;;;;;;;;;78.50;58.50;;;;;-144.62;100.00;60556.56;5031251;27;45960;-73
2024/01/18 09:27:25;;;;;;;;;74.25;58.25;;;;;-144.62;100.00;60556.56;5039961;28;45273;-74
2024/01/18 09:29:50;;;;;;;;;72.00;54.50;;;;;-144.62;100.00;60556.56;5038372;28;45309;-75
2024/01/18 09:32:16;;;;;;;;;62.50;52.50;;;;;-144.62;100.00;60556.56;5055407;28;45615;-75
2024/01/18 09:34:41;;;;;;;;;68.75;54.00;;;;;-144.62;100.00;60556.56;5034693;28;55543;-75
2024/01/18 09:37:06;;;;;;;;;67.25;53.50;;;;;-144.62;100.00;60556.56;5040250;28;45527;-74
2024/01/18 09:39:32;;;;;;;;;81.25;61.25;;;;;-144.62;100.00;60556.56;5031653;27;45311;-75
2024/01/18 09:41:58;;;;;;;;;73.50;60.00;;;;;-144.62;100.00;60556.56;5035120;28;45187;-75
2024/01/18 09:44:31;;;;;;;;;70.25;56.00;;;;;-144.62;100.00;60556.56;5035031;28;45442;-79
2024/01/18 09:46:58;;;;;;;;;71.75;52.00;;;;;-144.62;100.00;60556.56;5035925;27;45355;-75
2024/01/18 09:49:30;;;;;;;;;76.00;59.25;;;;;-144.62;100.00;60556.56;5038111;27;45446;-74
2024/01/18 09:51:58;;;;;;;;;71.25;54.25;;;;;-144.62;100.00;60556.56;5036643;28;45525;-76
2024/01/18 09:54:23;;;;;;;;;67.75;54.25;;;;;-144.62;100.00;60556.56;5033847;28;45562;-75
2024/01/18 09:56:52;;;;;;;;;65.75;54.75;;;;;-144.62;100.00;60556.56;5040390;27;45364;-75
2024/01/18 09:59:18;;;;;;;;;72.50;59.50;;;;;-144.62;100.00;60556.56;5034070;28;45381;-76
2024/01/18 10:01:44;;;;;;;;;71.75;58.25;;;;;-144.62;100.00;60556.56;5038877;28;45611;-75
2024/01/18 10:04:13;;;;;;;;;71.00;55.00;;;;;-144.62;100.00;60556.56;5035985;28;45577;-75
2024/01/18 10:06:39;;;;;;;;;72.00;57.75;;;;;-144.62;100.00;60556.56;5033247;28;45266;-76
2024/01/18 10:09:05;;;;;;;;;60.50;49.75;;;;;-144.62;100.00;60556.56;5040721;28;45401;-74
2024/01/18 10:11:31;;;;;;;;;73.50;57.25;;;;;-144.62;100.00;60556.56;5040676;28;45259;-76
2024/01/18 10:13:57;;;;;;;;;72.50;56.00;;;;;-144.62;100.00;60556.56;5034587;28;46494;-75
2024/01/18 10:16:27;;;;;;;;;73.75;58.00;;;;;-144.62;100.00;60556.56;5031977;28;45354;-75
2024/01/18 10:18:53;;;;;;;;;64.25;53.75;;;;;-144.62;100.00;60556.56;5036296;28;45182;-75
2024/01/18 10:21:21;;;;;;;;;69.50;57.50;;;;;-144.62;100.00;60556.56;5030361;28;45637;-74
2024/01/18 10:23:47;;;;;;;;;72.50;57.50;;;;;-144.62;100.00;60556.56;5037619;28;46180;-76
2024/01/18 10:26:12;;;;;;;;;71.25;56.75;;;;;-144.62;100.00;60556.56;5032993;28;45450;-74
2024/01/18 10:28:38;;;;;;;;;61.75;52.50;;;;;-144.62;100.00;60556.56;5039701;28;45405;-75
2024/01/18 10:31:03;;;;;;;;;71.75;55.00;;;;;-144.62;100.00;60556.56;5035051;28;45384;-74
2024/01/18 10:33:29;;;;;;;;;65.75;49.75;;;;;-144.62;100.00;60556.56;5038802;28;45435;-75
2024/01/18 10:35:54;;;;;;;;;75.25;56.50;;;;;-144.62;100.00;60556.56;5035940;28;45272;-74
2024/01/18 10:38:27;;;;;;;;;61.50;48.50;;;;;-144.62;100.00;60556.56;5037362;27;45339;-75
2024/01/18 10:40:53;;;;;;;;;71.25;56.25;;;;;-144.62;100.00;60556.56;5036371;28;45345;-75
2024/01/18 10:43:18;;;;;;;;;53.00;45.25;;;;;-144.62;100.00;60556.56;5038051;28;45437;-75
2024/01/18 10:45:45;;;;;;;;;60.25;47.00;;;;;-144.62;100.00;60556.56;5029683;28;45384;-75
2024/01/18 10:48:10;;;;;;;;;67.75;55.75;;;;;-144.62;100.00;60556.56;5039040;28;45590;-76